sensor_id;sensor_type;location;lat;lon;timestamp;pressure;altitude;pressure_sealevel;temperature;humidity
51067;BME280;37112;45.892;-123.962;2022-12-07T00:00:11;102004.02;;;9.09;80.32
51067;BME280;37112;45.892;-123.962;2022-12-07T00:02:44;102005.56;;;9.06;80.34
51067;BME280;37112;45.892;-123.962;2022-12-07T00:04:58;102007.81;;;9.03;80.29
51067;BME280;37112;45.892;-123.962;2022-12-07T00:07:11;102013.70;;;9.02;80.51
51067;BME280;37112;45.892;-123.962;2022-12-07T00:09:24;102013.66;;;8.99;80.55
51067;BME280;37112;45.892;-123.962;2022-12-07T00:11:38;102017.15;;;8.96;80.61
51067;BME280;37112;45.892;-123.962;2022-12-07T00:13:54;102019.05;;;8.92;80.68
51067;BME280;37112;45.892;-123.962;2022-12-07T00:16:09;102019.18;;;8.89;80.86
51067;BME280;37112;45.892;-123.962;2022-12-07T00:18:23;102017.85;;;8.87;80.93
51067;BME280;37112;45.892;-123.962;2022-12-07T00:20:38;102019.52;;;8.85;81.23
51067;BME280;37112;45.892;-123.962;2022-12-07T00:22:54;102022.24;;;8.83;81.30
51067;BME280;37112;45.892;-123.962;2022-12-07T00:25:10;102021.77;;;8.82;81.52
51067;BME280;37112;45.892;-123.962;2022-12-07T00:27:23;102020.46;;;8.79;81.35
51067;BME280;37112;45.892;-123.962;2022-12-07T00:29:36;102022.52;;;8.77;81.36
51067;BME280;37112;45.892;-123.962;2022-12-07T00:31:50;102022.97;;;8.74;81.53
51067;BME280;37112;45.892;-123.962;2022-12-07T00:34:04;102023.26;;;8.72;81.45
51067;BME280;37112;45.892;-123.962;2022-12-07T00:36:19;102021.29;;;8.67;81.60
51067;BME280;37112;45.892;-123.962;2022-12-07T00:38:37;102021.77;;;8.64;81.58
51067;BME280;37112;45.892;-123.962;2022-12-07T00:40:59;102024.21;;;8.60;81.62
51067;BME280;37112;45.892;-123.962;2022-12-07T00:43:12;102027.40;;;8.56;81.66
51067;BME280;37112;45.892;-123.962;2022-12-07T00:45:25;102028.24;;;8.52;81.84
51067;BME280;37112;45.892;-123.962;2022-12-07T00:47:39;102030.88;;;8.48;81.88
51067;BME280;37112;45.892;-123.962;2022-12-07T00:49:52;102031.00;;;8.45;81.97
51067;BME280;37112;45.892;-123.962;2022-12-07T00:52:06;102037.15;;;8.41;82.01
51067;BME280;37112;45.892;-123.962;2022-12-07T00:54:19;102038.15;;;8.38;82.06
51067;BME280;37112;45.892;-123.962;2022-12-07T00:56:33;102035.98;;;8.34;82.40
51067;BME280;37112;45.892;-123.962;2022-12-07T00:58:51;102038.17;;;8.31;82.60
51067;BME280;37112;45.892;-123.962;2022-12-07T01:01:06;102035.80;;;8.29;82.73
51067;BME280;37112;45.892;-123.962;2022-12-07T01:03:20;102038.24;;;8.25;82.60
51067;BME280;37112;45.892;-123.962;2022-12-07T01:05:33;102039.83;;;8.21;82.64
51067;BME280;37112;45.892;-123.962;2022-12-07T01:07:46;102044.73;;;8.18;82.83
51067;BME280;37112;45.892;-123.962;2022-12-07T01:10:00;102041.84;;;8.14;82.97
51067;BME280;37112;45.892;-123.962;2022-12-07T01:12:13;102050.08;;;8.12;83.00
51067;BME280;37112;45.892;-123.962;2022-12-07T01:14:26;102046.47;;;8.08;83.07
51067;BME280;37112;45.892;-123.962;2022-12-07T01:16:41;102048.07;;;8.03;83.31
51067;BME280;37112;45.892;-123.962;2022-12-07T01:18:54;102044.29;;;8.00;83.54
51067;BME280;37112;45.892;-123.962;2022-12-07T01:21:11;102039.27;;;7.97;83.64
51067;BME280;37112;45.892;-123.962;2022-12-07T01:23:24;102043.81;;;7.94;83.76
51067;BME280;37112;45.892;-123.962;2022-12-07T01:25:38;102038.85;;;7.89;83.71
51067;BME280;37112;45.892;-123.962;2022-12-07T01:27:51;102041.77;;;7.86;83.93
51067;BME280;37112;45.892;-123.962;2022-12-07T01:30:06;102044.91;;;7.82;84.14
51067;BME280;37112;45.892;-123.962;2022-12-07T01:32:19;102045.23;;;7.78;84.31
51067;BME280;37112;45.892;-123.962;2022-12-07T01:36:45;102042.08;;;7.72;84.54
51067;BME280;37112;45.892;-123.962;2022-12-07T01:39:00;102037.95;;;7.69;84.70
51067;BME280;37112;45.892;-123.962;2022-12-07T01:41:14;102035.73;;;7.67;84.80
51067;BME280;37112;45.892;-123.962;2022-12-07T01:43:29;102035.66;;;7.63;84.63
51067;BME280;37112;45.892;-123.962;2022-12-07T01:45:44;102039.69;;;7.60;84.53
51067;BME280;37112;45.892;-123.962;2022-12-07T01:47:59;102045.14;;;7.55;84.57
51067;BME280;37112;45.892;-123.962;2022-12-07T01:50:12;102048.27;;;7.51;84.64
51067;BME280;37112;45.892;-123.962;2022-12-07T01:52:29;102047.35;;;7.47;84.51
51067;BME280;37112;45.892;-123.962;2022-12-07T01:54:43;102047.00;;;7.42;84.70
51067;BME280;37112;45.892;-123.962;2022-12-07T01:56:58;102042.85;;;7.39;84.86
51067;BME280;37112;45.892;-123.962;2022-12-07T01:59:12;102042.08;;;7.36;84.74
51067;BME280;37112;45.892;-123.962;2022-12-07T02:01:26;102044.08;;;7.34;84.98
51067;BME280;37112;45.892;-123.962;2022-12-07T02:03:42;102047.48;;;7.33;85.15
51067;BME280;37112;45.892;-123.962;2022-12-07T02:05:56;102047.05;;;7.29;85.19
51067;BME280;37112;45.892;-123.962;2022-12-07T02:08:10;102047.72;;;7.25;85.16
51067;BME280;37112;45.892;-123.962;2022-12-07T02:10:27;102046.75;;;7.22;85.40
51067;BME280;37112;45.892;-123.962;2022-12-07T02:12:41;102050.89;;;7.20;85.45
51067;BME280;37112;45.892;-123.962;2022-12-07T02:14:55;102055.36;;;7.18;85.56
51067;BME280;37112;45.892;-123.962;2022-12-07T02:17:15;102054.01;;;7.17;85.69
51067;BME280;37112;45.892;-123.962;2022-12-07T02:20:02;102056.55;;;7.14;85.75
51067;BME280;37112;45.892;-123.962;2022-12-07T02:22:34;102060.40;;;7.10;85.67
51067;BME280;37112;45.892;-123.962;2022-12-07T02:24:55;102059.95;;;7.07;85.60
51067;BME280;37112;45.892;-123.962;2022-12-07T02:27:40;102060.80;;;7.03;85.80
51067;BME280;37112;45.892;-123.962;2022-12-07T02:30:01;102061.61;;;6.99;85.83
51067;BME280;37112;45.892;-123.962;2022-12-07T02:32:19;102066.45;;;6.97;86.00
51067;BME280;37112;45.892;-123.962;2022-12-07T02:34:39;102071.30;;;6.94;85.91
51067;BME280;37112;45.892;-123.962;2022-12-07T02:37:00;102067.48;;;6.92;85.97
51067;BME280;37112;45.892;-123.962;2022-12-07T02:39:19;102070.92;;;6.89;85.83
51067;BME280;37112;45.892;-123.962;2022-12-07T02:41:35;102069.28;;;6.86;85.80
51067;BME280;37112;45.892;-123.962;2022-12-07T02:43:54;102069.71;;;6.83;85.88
51067;BME280;37112;45.892;-123.962;2022-12-07T02:46:11;102069.27;;;6.80;85.96
51067;BME280;37112;45.892;-123.962;2022-12-07T02:48:27;102072.52;;;6.78;85.98
51067;BME280;37112;45.892;-123.962;2022-12-07T02:50:41;102072.95;;;6.75;86.12
51067;BME280;37112;45.892;-123.962;2022-12-07T02:52:57;102069.83;;;6.73;86.31
51067;BME280;37112;45.892;-123.962;2022-12-07T02:55:11;102070.75;;;6.72;86.19
51067;BME280;37112;45.892;-123.962;2022-12-07T02:57:38;102073.09;;;6.71;86.33
51067;BME280;37112;45.892;-123.962;2022-12-07T03:00:03;102073.86;;;6.67;86.14
51067;BME280;37112;45.892;-123.962;2022-12-07T03:02:22;102074.09;;;6.66;86.35
51067;BME280;37112;45.892;-123.962;2022-12-07T03:04:43;102072.61;;;6.63;86.23
51067;BME280;37112;45.892;-123.962;2022-12-07T03:07:03;102076.21;;;6.61;86.24
51067;BME280;37112;45.892;-123.962;2022-12-07T03:09:24;102077.85;;;6.58;86.30
51067;BME280;37112;45.892;-123.962;2022-12-07T03:11:46;102081.39;;;6.58;86.38
51067;BME280;37112;45.892;-123.962;2022-12-07T03:14:06;102083.70;;;6.57;86.45
51067;BME280;37112;45.892;-123.962;2022-12-07T03:16:27;102085.66;;;6.58;86.54
51067;BME280;37112;45.892;-123.962;2022-12-07T03:18:48;102088.30;;;6.57;86.63
51067;BME280;37112;45.892;-123.962;2022-12-07T03:21:05;102089.93;;;6.56;86.33
51067;BME280;37112;45.892;-123.962;2022-12-07T03:23:21;102091.77;;;6.54;86.39
51067;BME280;37112;45.892;-123.962;2022-12-07T03:25:36;102096.39;;;6.52;86.41
51067;BME280;37112;45.892;-123.962;2022-12-07T03:27:57;102099.64;;;6.50;86.49
51067;BME280;37112;45.892;-123.962;2022-12-07T03:30:15;102100.05;;;6.48;86.38
51067;BME280;37112;45.892;-123.962;2022-12-07T03:32:33;102098.50;;;6.47;86.55
51067;BME280;37112;45.892;-123.962;2022-12-07T03:34:54;102100.11;;;6.45;86.44
51067;BME280;37112;45.892;-123.962;2022-12-07T03:37:12;102099.29;;;6.43;86.48
51067;BME280;37112;45.892;-123.962;2022-12-07T03:39:33;102095.27;;;6.42;86.46
51067;BME280;37112;45.892;-123.962;2022-12-07T03:41:47;102096.03;;;6.40;86.48
51067;BME280;37112;45.892;-123.962;2022-12-07T03:44:01;102095.91;;;6.38;86.59
51067;BME280;37112;45.892;-123.962;2022-12-07T03:46:22;102094.48;;;6.38;86.62
51067;BME280;37112;45.892;-123.962;2022-12-07T03:48:46;102095.91;;;6.38;86.75
51067;BME280;37112;45.892;-123.962;2022-12-07T03:51:06;102094.65;;;6.39;86.89
51067;BME280;37112;45.892;-123.962;2022-12-07T03:53:22;102097.25;;;6.41;86.90
51067;BME280;37112;45.892;-123.962;2022-12-07T03:55:39;102096.89;;;6.41;86.80
51067;BME280;37112;45.892;-123.962;2022-12-07T03:57:56;102096.16;;;6.41;86.78
51067;BME280;37112;45.892;-123.962;2022-12-07T04:00:13;102098.80;;;6.42;86.92
51067;BME280;37112;45.892;-123.962;2022-12-07T04:02:27;102096.98;;;6.43;86.85
51067;BME280;37112;45.892;-123.962;2022-12-07T04:04:41;102101.52;;;6.45;86.93
51067;BME280;37112;45.892;-123.962;2022-12-07T04:06:55;102103.80;;;6.46;86.76
51067;BME280;37112;45.892;-123.962;2022-12-07T04:09:09;102103.80;;;6.47;86.96
51067;BME280;37112;45.892;-123.962;2022-12-07T04:11:22;102107.08;;;6.49;86.87
51067;BME280;37112;45.892;-123.962;2022-12-07T04:13:35;102103.20;;;6.49;86.98
51067;BME280;37112;45.892;-123.962;2022-12-07T04:16:02;102102.69;;;6.49;86.85
51067;BME280;37112;45.892;-123.962;2022-12-07T04:18:15;102104.26;;;6.49;86.81
51067;BME280;37112;45.892;-123.962;2022-12-07T04:20:28;102101.78;;;6.49;86.78
51067;BME280;37112;45.892;-123.962;2022-12-07T04:22:41;102101.06;;;6.50;86.82
51067;BME280;37112;45.892;-123.962;2022-12-07T04:24:55;102100.00;;;6.49;86.87
51067;BME280;37112;45.892;-123.962;2022-12-07T04:27:08;102101.26;;;6.49;86.70
51067;BME280;37112;45.892;-123.962;2022-12-07T04:29:22;102098.47;;;6.48;86.72
51067;BME280;37112;45.892;-123.962;2022-12-07T04:31:35;102097.59;;;6.48;86.70
51067;BME280;37112;45.892;-123.962;2022-12-07T04:33:49;102096.02;;;6.47;86.77
51067;BME280;37112;45.892;-123.962;2022-12-07T04:36:02;102092.66;;;6.47;86.86
51067;BME280;37112;45.892;-123.962;2022-12-07T04:38:16;102095.30;;;6.47;86.82
51067;BME280;37112;45.892;-123.962;2022-12-07T04:40:29;102096.58;;;6.46;86.84
51067;BME280;37112;45.892;-123.962;2022-12-07T04:42:42;102095.69;;;6.46;86.92
51067;BME280;37112;45.892;-123.962;2022-12-07T04:44:55;102094.31;;;6.44;86.89
51067;BME280;37112;45.892;-123.962;2022-12-07T04:47:09;102090.98;;;6.43;86.83
51067;BME280;37112;45.892;-123.962;2022-12-07T04:49:23;102093.30;;;6.43;86.96
51067;BME280;37112;45.892;-123.962;2022-12-07T04:51:36;102094.54;;;6.42;86.97
51067;BME280;37112;45.892;-123.962;2022-12-07T04:53:50;102092.46;;;6.41;86.95
51067;BME280;37112;45.892;-123.962;2022-12-07T04:56:04;102091.41;;;6.41;86.96
51067;BME280;37112;45.892;-123.962;2022-12-07T04:58:17;102088.31;;;6.38;86.85
51067;BME280;37112;45.892;-123.962;2022-12-07T05:00:30;102093.63;;;6.37;86.89
51067;BME280;37112;45.892;-123.962;2022-12-07T05:02:44;102094.72;;;6.36;86.93
51067;BME280;37112;45.892;-123.962;2022-12-07T05:04:57;102096.45;;;6.37;87.07
51067;BME280;37112;45.892;-123.962;2022-12-07T05:07:11;102099.09;;;6.37;87.15
51067;BME280;37112;45.892;-123.962;2022-12-07T05:09:24;102101.55;;;6.37;87.31
51067;BME280;37112;45.892;-123.962;2022-12-07T05:11:38;102102.79;;;6.38;87.24
51067;BME280;37112;45.892;-123.962;2022-12-07T05:13:51;102107.55;;;6.38;87.36
51067;BME280;37112;45.892;-123.962;2022-12-07T05:16:05;102108.92;;;6.40;87.35
51067;BME280;37112;45.892;-123.962;2022-12-07T05:18:18;102113.31;;;6.41;87.40
51067;BME280;37112;45.892;-123.962;2022-12-07T05:20:32;102111.71;;;6.41;87.22
51067;BME280;37112;45.892;-123.962;2022-12-07T05:22:51;102112.41;;;6.41;87.24
51067;BME280;37112;45.892;-123.962;2022-12-07T05:25:04;102113.45;;;6.41;87.23
51067;BME280;37112;45.892;-123.962;2022-12-07T05:27:18;102110.08;;;6.42;87.38
51067;BME280;37112;45.892;-123.962;2022-12-07T05:29:31;102111.66;;;6.42;87.20
51067;BME280;37112;45.892;-123.962;2022-12-07T05:31:45;102110.60;;;6.42;87.22
51067;BME280;37112;45.892;-123.962;2022-12-07T05:33:58;102112.79;;;6.40;87.30
51067;BME280;37112;45.892;-123.962;2022-12-07T05:36:12;102113.86;;;6.39;87.24
51067;BME280;37112;45.892;-123.962;2022-12-07T05:38:25;102110.73;;;6.38;87.31
51067;BME280;37112;45.892;-123.962;2022-12-07T05:40:38;102107.21;;;6.37;87.35
51067;BME280;37112;45.892;-123.962;2022-12-07T05:42:52;102105.12;;;6.36;87.21
51067;BME280;37112;45.892;-123.962;2022-12-07T05:45:13;102104.97;;;6.36;87.28
51067;BME280;37112;45.892;-123.962;2022-12-07T05:47:26;102105.89;;;6.34;87.44
51067;BME280;37112;45.892;-123.962;2022-12-07T05:49:39;102108.92;;;6.33;87.29
51067;BME280;37112;45.892;-123.962;2022-12-07T05:51:53;102108.08;;;6.32;87.38
51067;BME280;37112;45.892;-123.962;2022-12-07T05:54:06;102108.10;;;6.32;87.28
51067;BME280;37112;45.892;-123.962;2022-12-07T05:56:19;102109.88;;;6.31;87.38
51067;BME280;37112;45.892;-123.962;2022-12-07T05:58:33;102111.30;;;6.31;87.33
51067;BME280;37112;45.892;-123.962;2022-12-07T06:01:03;102109.19;;;6.30;87.43
51067;BME280;37112;45.892;-123.962;2022-12-07T06:03:16;102105.16;;;6.29;87.36
51067;BME280;37112;45.892;-123.962;2022-12-07T06:05:30;102107.67;;;6.28;87.42
51067;BME280;37112;45.892;-123.962;2022-12-07T06:07:43;102103.08;;;6.28;87.36
51067;BME280;37112;45.892;-123.962;2022-12-07T06:09:57;102105.39;;;6.27;87.57
51067;BME280;37112;45.892;-123.962;2022-12-07T06:12:12;102105.23;;;6.26;87.48
51067;BME280;37112;45.892;-123.962;2022-12-07T06:14:42;102102.24;;;6.26;87.48
51067;BME280;37112;45.892;-123.962;2022-12-07T06:16:55;102102.95;;;6.26;87.41
51067;BME280;37112;45.892;-123.962;2022-12-07T06:19:09;102102.78;;;6.26;87.41
51067;BME280;37112;45.892;-123.962;2022-12-07T06:21:22;102102.42;;;6.26;87.53
51067;BME280;37112;45.892;-123.962;2022-12-07T06:23:36;102103.42;;;6.28;87.56
51067;BME280;37112;45.892;-123.962;2022-12-07T06:25:49;102106.02;;;6.30;87.55
51067;BME280;37112;45.892;-123.962;2022-12-07T06:28:03;102112.00;;;6.31;87.51
51067;BME280;37112;45.892;-123.962;2022-12-07T06:30:16;102110.23;;;6.31;87.33
51067;BME280;37112;45.892;-123.962;2022-12-07T06:32:29;102107.08;;;6.30;87.38
51067;BME280;37112;45.892;-123.962;2022-12-07T06:34:43;102112.70;;;6.31;87.41
51067;BME280;37112;45.892;-123.962;2022-12-07T06:36:57;102113.71;;;6.32;87.34
51067;BME280;37112;45.892;-123.962;2022-12-07T06:39:11;102116.58;;;6.31;87.15
51067;BME280;37112;45.892;-123.962;2022-12-07T06:41:24;102115.18;;;6.30;87.15
51067;BME280;37112;45.892;-123.962;2022-12-07T06:43:37;102114.17;;;6.28;87.10
51067;BME280;37112;45.892;-123.962;2022-12-07T06:45:51;102109.30;;;6.26;87.00
51067;BME280;37112;45.892;-123.962;2022-12-07T06:48:04;102106.35;;;6.24;87.11
51067;BME280;37112;45.892;-123.962;2022-12-07T06:50:18;102106.90;;;6.24;87.07
51067;BME280;37112;45.892;-123.962;2022-12-07T06:52:32;102108.69;;;6.23;87.18
51067;BME280;37112;45.892;-123.962;2022-12-07T06:54:45;102111.69;;;6.23;87.21
51067;BME280;37112;45.892;-123.962;2022-12-07T06:56:59;102113.64;;;6.23;87.15
51067;BME280;37112;45.892;-123.962;2022-12-07T06:59:12;102115.39;;;6.23;87.25
51067;BME280;37112;45.892;-123.962;2022-12-07T07:01:26;102113.77;;;6.24;87.38
51067;BME280;37112;45.892;-123.962;2022-12-07T07:03:39;102118.38;;;6.23;87.15
51067;BME280;37112;45.892;-123.962;2022-12-07T07:05:52;102117.16;;;6.22;87.14
51067;BME280;37112;45.892;-123.962;2022-12-07T07:08:05;102118.58;;;6.22;87.21
51067;BME280;37112;45.892;-123.962;2022-12-07T07:10:34;102116.86;;;6.20;87.22
51067;BME280;37112;45.892;-123.962;2022-12-07T07:12:47;102116.88;;;6.19;87.21
51067;BME280;37112;45.892;-123.962;2022-12-07T07:15:07;102115.33;;;6.18;87.27
51067;BME280;37112;45.892;-123.962;2022-12-07T07:17:20;102121.17;;;6.18;87.25
51067;BME280;37112;45.892;-123.962;2022-12-07T07:19:33;102118.71;;;6.18;87.35
51067;BME280;37112;45.892;-123.962;2022-12-07T07:21:48;102114.83;;;6.17;87.34
51067;BME280;37112;45.892;-123.962;2022-12-07T07:24:01;102115.40;;;6.16;87.36
51067;BME280;37112;45.892;-123.962;2022-12-07T07:26:14;102121.60;;;6.15;87.30
51067;BME280;37112;45.892;-123.962;2022-12-07T07:28:31;102118.96;;;6.14;87.40
51067;BME280;37112;45.892;-123.962;2022-12-07T07:30:45;102123.06;;;6.12;87.32
51067;BME280;37112;45.892;-123.962;2022-12-07T07:33:00;102117.27;;;6.11;87.34
51067;BME280;37112;45.892;-123.962;2022-12-07T07:35:14;102118.70;;;6.11;87.49
51067;BME280;37112;45.892;-123.962;2022-12-07T07:37:28;102118.52;;;6.11;87.61
51067;BME280;37112;45.892;-123.962;2022-12-07T07:39:41;102113.27;;;6.10;87.58
51067;BME280;37112;45.892;-123.962;2022-12-07T07:41:54;102118.21;;;6.10;87.57
51067;BME280;37112;45.892;-123.962;2022-12-07T07:44:08;102119.46;;;6.09;87.67
51067;BME280;37112;45.892;-123.962;2022-12-07T07:46:22;102119.63;;;6.09;87.88
51067;BME280;37112;45.892;-123.962;2022-12-07T07:48:35;102123.84;;;6.10;87.76
51067;BME280;37112;45.892;-123.962;2022-12-07T07:50:48;102119.29;;;6.09;87.75
51067;BME280;37112;45.892;-123.962;2022-12-07T07:53:02;102118.21;;;6.10;87.87
51067;BME280;37112;45.892;-123.962;2022-12-07T07:55:15;102115.16;;;6.11;87.77
51067;BME280;37112;45.892;-123.962;2022-12-07T07:57:28;102115.52;;;6.11;87.86
51067;BME280;37112;45.892;-123.962;2022-12-07T07:59:42;102113.68;;;6.13;88.02
51067;BME280;37112;45.892;-123.962;2022-12-07T08:01:55;102116.48;;;6.15;87.92
51067;BME280;37112;45.892;-123.962;2022-12-07T08:04:08;102114.55;;;6.14;87.85
51067;BME280;37112;45.892;-123.962;2022-12-07T08:06:22;102119.30;;;6.14;87.79
51067;BME280;37112;45.892;-123.962;2022-12-07T08:08:41;102117.73;;;6.14;87.87
51067;BME280;37112;45.892;-123.962;2022-12-07T08:10:54;102115.77;;;6.15;88.00
51067;BME280;37112;45.892;-123.962;2022-12-07T08:13:11;102114.36;;;6.15;87.98
51067;BME280;37112;45.892;-123.962;2022-12-07T08:15:24;102113.67;;;6.14;88.05
51067;BME280;37112;45.892;-123.962;2022-12-07T08:17:37;102109.44;;;6.14;87.96
51067;BME280;37112;45.892;-123.962;2022-12-07T08:19:51;102105.23;;;6.13;87.91
51067;BME280;37112;45.892;-123.962;2022-12-07T08:22:04;102104.88;;;6.13;87.85
51067;BME280;37112;45.892;-123.962;2022-12-07T08:24:18;102106.30;;;6.13;88.02
51067;BME280;37112;45.892;-123.962;2022-12-07T08:26:31;102105.23;;;6.13;87.87
51067;BME280;37112;45.892;-123.962;2022-12-07T08:28:45;102107.87;;;6.13;88.03
51067;BME280;37112;45.892;-123.962;2022-12-07T08:31:03;102105.27;;;6.12;87.91
51067;BME280;37112;45.892;-123.962;2022-12-07T08:33:17;102103.73;;;6.10;87.65
51067;BME280;37112;45.892;-123.962;2022-12-07T08:35:35;102101.48;;;6.09;87.78
51067;BME280;37112;45.892;-123.962;2022-12-07T08:37:48;102105.21;;;6.08;87.87
51067;BME280;37112;45.892;-123.962;2022-12-07T08:40:02;102106.27;;;6.08;87.77
51067;BME280;37112;45.892;-123.962;2022-12-07T08:42:15;102104.84;;;6.08;87.87
51067;BME280;37112;45.892;-123.962;2022-12-07T08:44:29;102107.48;;;6.09;88.13
51067;BME280;37112;45.892;-123.962;2022-12-07T08:46:44;102101.11;;;6.09;88.05
51067;BME280;37112;45.892;-123.962;2022-12-07T08:49:02;102101.64;;;6.10;88.10
51067;BME280;37112;45.892;-123.962;2022-12-07T08:51:16;102098.85;;;6.08;87.90
51067;BME280;37112;45.892;-123.962;2022-12-07T08:53:30;102094.10;;;6.08;88.02
51067;BME280;37112;45.892;-123.962;2022-12-07T08:55:44;102093.21;;;6.08;87.99
51067;BME280;37112;45.892;-123.962;2022-12-07T08:57:59;102093.17;;;6.10;88.08
51067;BME280;37112;45.892;-123.962;2022-12-07T09:00:15;102091.20;;;6.10;88.08
51067;BME280;37112;45.892;-123.962;2022-12-07T09:02:29;102086.61;;;6.11;87.98
51067;BME280;37112;45.892;-123.962;2022-12-07T09:04:43;102080.26;;;6.11;87.90
51067;BME280;37112;45.892;-123.962;2022-12-07T09:06:56;102079.02;;;6.11;88.04
51067;BME280;37112;45.892;-123.962;2022-12-07T09:09:11;102079.86;;;6.12;88.11
51067;BME280;37112;45.892;-123.962;2022-12-07T09:11:24;102077.57;;;6.12;88.20
51067;BME280;37112;45.892;-123.962;2022-12-07T09:13:38;102070.67;;;6.13;88.11
51067;BME280;37112;45.892;-123.962;2022-12-07T09:15:51;102068.71;;;6.14;87.96
51067;BME280;37112;45.892;-123.962;2022-12-07T09:18:04;102069.94;;;6.14;88.03
51067;BME280;37112;45.892;-123.962;2022-12-07T09:20:17;102069.95;;;6.13;88.13
51067;BME280;37112;45.892;-123.962;2022-12-07T09:22:36;102068.54;;;6.14;88.12
51067;BME280;37112;45.892;-123.962;2022-12-07T09:24:50;102068.35;;;6.14;88.08
51067;BME280;37112;45.892;-123.962;2022-12-07T09:27:03;102067.29;;;6.15;88.12
51067;BME280;37112;45.892;-123.962;2022-12-07T09:29:16;102066.58;;;6.14;88.21
51067;BME280;37112;45.892;-123.962;2022-12-07T09:31:30;102065.52;;;6.15;88.08
51067;BME280;37112;45.892;-123.962;2022-12-07T09:33:43;102067.46;;;6.14;87.85
51067;BME280;37112;45.892;-123.962;2022-12-07T09:35:57;102065.73;;;6.13;87.99
51067;BME280;37112;45.892;-123.962;2022-12-07T09:38:10;102066.95;;;6.14;88.02
51067;BME280;37112;45.892;-123.962;2022-12-07T09:40:24;102064.45;;;6.15;88.04
51067;BME280;37112;45.892;-123.962;2022-12-07T09:42:39;102057.58;;;6.15;88.00
51067;BME280;37112;45.892;-123.962;2022-12-07T09:44:54;102058.46;;;6.15;87.91
51067;BME280;37112;45.892;-123.962;2022-12-07T09:47:11;102057.05;;;6.14;87.80
51067;BME280;37112;45.892;-123.962;2022-12-07T09:49:25;102057.23;;;6.14;87.82
51067;BME280;37112;45.892;-123.962;2022-12-07T09:51:41;102061.52;;;6.12;87.74
51067;BME280;37112;45.892;-123.962;2022-12-07T09:53:55;102061.04;;;6.11;87.68
51067;BME280;37112;45.892;-123.962;2022-12-07T09:56:14;102060.17;;;6.10;87.78
51067;BME280;37112;45.892;-123.962;2022-12-07T09:58:30;102058.80;;;6.09;87.75
51067;BME280;37112;45.892;-123.962;2022-12-07T10:00:44;102056.38;;;6.07;87.76
51067;BME280;37112;45.892;-123.962;2022-12-07T10:02:59;102054.79;;;6.08;87.85
51067;BME280;37112;45.892;-123.962;2022-12-07T10:05:15;102057.61;;;6.08;87.97
51067;BME280;37112;45.892;-123.962;2022-12-07T10:07:34;102057.24;;;6.08;88.02
51067;BME280;37112;45.892;-123.962;2022-12-07T10:09:48;102056.54;;;6.08;87.95
51067;BME280;37112;45.892;-123.962;2022-12-07T10:12:07;102054.20;;;6.09;88.04
51067;BME280;37112;45.892;-123.962;2022-12-07T10:14:21;102052.63;;;6.09;88.00
51067;BME280;37112;45.892;-123.962;2022-12-07T10:16:54;102055.06;;;6.10;87.97
51067;BME280;37112;45.892;-123.962;2022-12-07T10:19:30;102048.52;;;6.11;88.05
51067;BME280;37112;45.892;-123.962;2022-12-07T10:22:02;102048.84;;;6.11;87.79
51067;BME280;37112;45.892;-123.962;2022-12-07T10:24:17;102045.69;;;6.11;87.79
51067;BME280;37112;45.892;-123.962;2022-12-07T10:26:33;102047.81;;;6.10;87.80
51067;BME280;37112;45.892;-123.962;2022-12-07T10:28:46;102047.33;;;6.10;87.81
51067;BME280;37112;45.892;-123.962;2022-12-07T10:31:02;102046.77;;;6.10;87.95
51067;BME280;37112;45.892;-123.962;2022-12-07T10:33:30;102046.61;;;6.10;87.81
51067;BME280;37112;45.892;-123.962;2022-12-07T10:35:45;102044.45;;;6.11;87.97
51067;BME280;37112;45.892;-123.962;2022-12-07T10:37:59;102047.05;;;6.12;87.83
51067;BME280;37112;45.892;-123.962;2022-12-07T10:40:30;102043.02;;;6.12;87.94
51067;BME280;37112;45.892;-123.962;2022-12-07T10:42:44;102041.02;;;6.13;88.08
51067;BME280;37112;45.892;-123.962;2022-12-07T10:45:17;102041.35;;;6.15;88.15
51067;BME280;37112;45.892;-123.962;2022-12-07T10:47:35;102036.55;;;6.17;88.15
51067;BME280;37112;45.892;-123.962;2022-12-07T10:50:17;102037.90;;;6.19;88.01
51067;BME280;37112;45.892;-123.962;2022-12-07T10:52:45;102036.80;;;6.20;87.97
51067;BME280;37112;45.892;-123.962;2022-12-07T10:55:16;102031.67;;;6.20;88.09
51067;BME280;37112;45.892;-123.962;2022-12-07T10:57:43;102029.77;;;6.19;87.79
51067;BME280;37112;45.892;-123.962;2022-12-07T11:00:14;102029.84;;;6.17;87.67
51067;BME280;37112;45.892;-123.962;2022-12-07T11:02:40;102027.09;;;6.14;87.53
51067;BME280;37112;45.892;-123.962;2022-12-07T11:05:04;102025.70;;;6.13;87.78
51067;BME280;37112;45.892;-123.962;2022-12-07T11:07:34;102029.38;;;6.14;87.87
51067;BME280;37112;45.892;-123.962;2022-12-07T11:10:04;102027.30;;;6.12;87.76
51067;BME280;37112;45.892;-123.962;2022-12-07T11:12:28;102029.30;;;6.10;87.72
51067;BME280;37112;45.892;-123.962;2022-12-07T11:14:53;102028.64;;;6.09;87.79
51067;BME280;37112;45.892;-123.962;2022-12-07T11:17:13;102026.71;;;6.09;87.90
51067;BME280;37112;45.892;-123.962;2022-12-07T11:19:49;102027.39;;;6.10;87.91
51067;BME280;37112;45.892;-123.962;2022-12-07T11:22:13;102028.61;;;6.10;87.94
51067;BME280;37112;45.892;-123.962;2022-12-07T11:24:35;102028.44;;;6.10;88.14
51067;BME280;37112;45.892;-123.962;2022-12-07T11:27:06;102024.77;;;6.09;87.94
51067;BME280;37112;45.892;-123.962;2022-12-07T11:29:36;102023.95;;;6.06;88.02
51067;BME280;37112;45.892;-123.962;2022-12-07T11:32:04;102022.08;;;6.04;88.04
51067;BME280;37112;45.892;-123.962;2022-12-07T11:34:26;102021.56;;;6.04;88.11
51067;BME280;37112;45.892;-123.962;2022-12-07T11:36:45;102018.39;;;6.04;88.15